createdAt,value
2023-05-08T00:12:04.431Z,13.80
2023-05-08T00:32:04.570Z,13.72
2023-05-08T00:52:04.439Z,13.51
2023-05-08T01:12:04.457Z,13.36
2023-05-08T01:32:04.439Z,13.30
2023-05-08T01:52:04.351Z,13.26
2023-05-08T02:12:04.359Z,13.14
2023-05-08T02:32:04.473Z,12.91
2023-05-08T02:52:04.499Z,12.62
2023-05-08T03:12:04.356Z,12.35
2023-05-08T03:32:04.364Z,11.97
2023-05-08T03:52:04.273Z,11.78
2023-05-08T04:12:04.325Z,11.70
2023-05-08T04:32:04.261Z,11.58
2023-05-08T04:52:04.306Z,11.51
2023-05-08T05:12:04.264Z,11.56
2023-05-08T05:32:04.232Z,11.60
2023-05-08T05:52:04.140Z,11.69
2023-05-08T06:12:04.257Z,11.71
2023-05-08T06:32:04.138Z,11.79
2023-05-08T06:52:04.213Z,11.68
2023-05-08T07:12:04.121Z,11.90
2023-05-08T07:32:04.199Z,12.07
2023-05-08T07:52:04.029Z,12.30
2023-05-08T08:12:04.108Z,12.93
2023-05-08T08:32:04.006Z,13.58
2023-05-08T08:52:04.023Z,14.03
2023-05-08T09:12:04.070Z,13.83
2023-05-08T09:32:03.994Z,13.91
2023-05-08T09:52:03.899Z,14.21
2023-05-08T10:12:03.905Z,14.78
2023-05-08T10:32:03.911Z,15.75
2023-05-08T10:52:03.927Z,16.40
2023-05-08T11:12:03.826Z,16.78
2023-05-08T11:32:03.845Z,16.85
2023-05-08T11:52:03.949Z,17.16
2023-05-08T12:12:03.864Z,17.45
2023-05-08T12:32:03.882Z,17.69
2023-05-08T12:52:44.793Z,17.53
2023-05-08T13:12:03.732Z,17.72
2023-05-08T13:32:03.724Z,17.89
2023-05-08T13:52:03.620Z,17.57
2023-05-08T14:12:03.791Z,17.35
2023-05-08T14:32:03.747Z,17.26
2023-05-08T14:52:03.701Z,17.14
2023-05-08T15:12:03.692Z,17.32
2023-05-08T15:32:03.708Z,17.59
2023-05-08T15:52:03.516Z,17.60
2023-05-08T16:12:03.541Z,17.42
2023-05-08T16:32:03.620Z,17.12
2023-05-08T16:52:03.506Z,16.84
2023-05-08T17:12:03.401Z,16.52
2023-05-08T17:32:03.481Z,16.27
2023-05-08T17:52:03.408Z,16.03
2023-05-08T18:12:03.307Z,15.61
2023-05-08T18:32:03.494Z,15.04
2023-05-08T18:52:03.322Z,14.49
2023-05-08T19:12:03.451Z,14.19
2023-05-08T19:32:03.330Z,13.77
2023-05-08T19:52:03.250Z,13.34
2023-05-08T20:12:03.212Z,13.10
2023-05-08T20:32:03.243Z,12.84
2023-05-08T20:52:03.220Z,12.64
2023-05-08T21:12:03.218Z,12.49
2023-05-08T21:32:03.121Z,12.41
2023-05-08T21:52:03.121Z,12.21
2023-05-08T22:12:03.202Z,11.78
2023-05-08T22:32:03.113Z,11.44
2023-05-08T22:52:03.117Z,11.10
2023-05-08T23:12:03.127Z,10.92
2023-05-08T23:32:03.007Z,10.64
2023-05-08T23:52:03.015Z,10.37
